Ocean Tomo — 3FID9 — position and weather

sailwx.info

Track history (hours):
 
Tides and Currents Weather Stations Pressure Air Temp Water Temp Dewpoint Dewpoint Depression Visibility Wind Speed Wind Dir Waves Ship Positions

Ocean Tomo

Last reported at 2016-May-02 10:12 UTC. Time now 2016-May-03 12:31 UTC.
Position N 49°04' W 006°09'.

Length 190 m; draft 9.3 m.

Type: Ship. MMSI: 372951000.

Date/timePositionNaut miles runAvg speedWind from/ knotsBaromVisibWave heightAir tempDewpointWater temp
2016-May-02 10:12N 49°04' W 006°09'812.7
2016-May-02 09:33N 49°08' W 005°58'1413.0
2016-May-02 08:29N 49°13' W 005°38'1613.5
2016-May-02 07:16N 49°20' W 005°16'1013.9
2016-May-02 06:33N 49°24' W 005°02'1414.0
2016-May-02 05:33N 49°30' W 004°42'1413.7
2016-May-02 04:33N 49°36' W 004°23'1313.3
2016-May-02 03:33N 49°41' W 004°04'1313.0
2016-May-02 02:33N 49°47' W 003°46'1312.8
2016-May-02 01:33N 49°52' W 003°28'1312.8
2016-May-02 00:33N 49°57' W 003°10'1313.3
2016-May-01 23:33N 50°02' W 002°50'6514.9
2016-May-01 19:12N 50°19' W 001°12'914.8
2016-May-01 18:33N 50°21' W 000°58'1413.8
2016-May-01 17:33N 50°25' W 000°37'1313.1
2016-May-01 16:33N 50°28' W 000°17'1312.9
2016-May-01 15:33N 50°32' E 000°03'1312.9
2016-May-01 14:33N 50°35' E 000°22'2813.8
2016-May-01 12:33N 50°49' E 001°00'1515.5
2016-May-01 11:33N 50°60' E 001°18'1515.2
2016-May-01 10:34N 51°09' E 001°37'1414.1
2016-May-01 09:33N 51°19' E 001°52'1111.1
2016-May-01 08:34N 51°23' E 002°09'1312.7
2016-May-01 07:33N 51°23' E 002°30'1211.7
2016-May-01 06:33N 51°22' E 002°48'1212.3
2016-May-01 05:33N 51°24' E 003°08'1212.4
2016-May-01 04:33N 51°25' E 003°27'9 9.2
2016-May-01 03:33N 51°25' E 003°42'9 9.4
2016-May-01 02:33N 51°23' E 003°57'8 8.3
2016-May-01 01:33N 51°23' E 004°10'5 5.2
2016-May-01 00:33N 51°21' E 004°17'1 0.5
2016-Apr-30 23:33N 51°20' E 004°18'4 4.1
2016-Apr-30 22:33N 51°17' E 004°21'0 0.1
2016-Apr-30 21:31N 51°17' E 004°21'0 0.0
2016-Apr-30 20:31N 51°17' E 004°21'0 0.0
2016-Apr-30 19:31N 51°17' E 004°21'0 0.0
2016-Apr-30 18:28N 51°17' E 004°21'0 0.0
2016-Apr-30 17:31N 51°17' E 004°21'0 0.0
2016-Apr-30 16:31N 51°17' E 004°21'0 0.0
2016-Apr-30 15:31N 51°17' E 004°21'0 0.0
2016-Apr-30 14:31N 51°17' E 004°21'0 0.0
2016-Apr-30 13:31N 51°17' E 004°21'0 0.0
2016-Apr-30 12:25N 51°17' E 004°21'0 0.0
2016-Apr-30 11:31N 51°17' E 004°21'0 0.0
2016-Apr-30 10:31N 51°17' E 004°21'0 0.0
2016-Apr-30 09:25N 51°17' E 004°21'0 0.0
2016-Apr-30 08:31N 51°17' E 004°21'0 0.0
2016-Apr-30 07:31N 51°17' E 004°21'0 0.0
2016-Apr-30 06:28N 51°17' E 004°21'0 0.0
2016-Apr-30 05:31N 51°17' E 004°21'0 0.0
2016-Apr-30 04:31N 51°17' E 004°21'0 0.0
2016-Apr-30 03:31N 51°17' E 004°21'0 0.0
2016-Apr-30 02:31N 51°17' E 004°21'0 0.0
2016-Apr-30 01:28N 51°17' E 004°21'0 0.0
2016-Apr-30 00:31N 51°17' E 004°21'0 0.0
2016-Apr-29 23:31N 51°17' E 004°21'0 0.0
2016-Apr-29 22:31N 51°17' E 004°21'0 0.0
2016-Apr-29 21:31N 51°17' E 004°21'0 0.0
2016-Apr-29 20:31N 51°17' E 004°21'0 0.0
2016-Apr-29 19:31N 51°17' E 004°21'0 0.0
2016-Apr-29 18:28N 51°17' E 004°21'0 0.0
2016-Apr-29 17:31N 51°17' E 004°21'0 0.0
2016-Apr-29 16:31N 51°17' E 004°21'0 0.0
2016-Apr-29 15:31N 51°17' E 004°21'0 0.0
2016-Apr-29 14:28N 51°17' E 004°21'0 0.0
2016-Apr-29 13:31N 51°17' E 004°21'0 0.0
2016-Apr-29 12:31N 51°17' E 004°21'0 0.0
2016-Apr-29 11:31N 51°17' E 004°21'0 0.0
2016-Apr-29 10:31N 51°17' E 004°21'0 0.0
2016-Apr-29 09:31N 51°17' E 004°21'0 0.0
2016-Apr-29 08:31N 51°17' E 004°21'0 0.0
2016-Apr-29 07:31N 51°17' E 004°21'0 0.0
2016-Apr-29 06:31N 51°17' E 004°21'0 0.0
2016-Apr-29 05:28N 51°17' E 004°21'0 0.0
2016-Apr-29 04:28N 51°17' E 004°21'0 0.0
2016-Apr-29 03:31N 51°17' E 004°21'0 0.0
2016-Apr-29 02:31N 51°17' E 004°21'0 0.0
2016-Apr-29 01:31N 51°17' E 004°21'0 0.0
2016-Apr-29 00:31N 51°17' E 004°21'0 0.0
2016-Apr-28 23:28N 51°17' E 004°21'0 0.0
2016-Apr-28 22:31N 51°17' E 004°21'0 0.0
2016-Apr-28 21:28N 51°17' E 004°21'0 0.0
2016-Apr-28 20:31N 51°17' E 004°21'0 0.0
2016-Apr-28 19:31N 51°17' E 004°21'0 0.0
2016-Apr-28 18:31N 51°17' E 004°21'0 0.0
2016-Apr-28 17:31N 51°17' E 004°21'0 0.0
2016-Apr-28 16:31N 51°17' E 004°21'0 0.0
2016-Apr-28 15:31N 51°17' E 004°21'0 0.0
2016-Apr-28 14:31N 51°17' E 004°21'0 0.0
2016-Apr-28 13:28N 51°17' E 004°21'0 0.0
2016-Apr-28 12:31N 51°17' E 004°21'0 0.0
2016-Apr-28 11:31N 51°17' E 004°21'0 0.0
2016-Apr-28 10:31N 51°17' E 004°21'0 0.0
2016-Apr-28 09:31N 51°17' E 004°21'0 0.0
2016-Apr-28 08:31N 51°17' E 004°21'0 0.0
2016-Apr-28 07:31N 51°17' E 004°21'0 0.0
2016-Apr-28 06:31N 51°17' E 004°21'0 0.0
2016-Apr-28 05:34N 51°17' E 004°21'0 0.0
2016-Apr-28 04:28N 51°17' E 004°21'0 0.0
2016-Apr-28 03:34N 51°17' E 004°21'0 0.0
2016-Apr-28 02:31N 51°17' E 004°21'0 0.0
2016-Apr-28 01:30N 51°17' E 004°21'0 0.0
2016-Apr-28 00:33N 51°17' E 004°21'0 0.0
2016-Apr-27 23:33N 51°17' E 004°21'0 0.0
2016-Apr-27 22:33N 51°17' E 004°21'0 0.0
2016-Apr-27 21:33N 51°17' E 004°21'0 0.0
2016-Apr-27 20:33N 51°17' E 004°21'0 0.0
2016-Apr-27 19:33N 51°17' E 004°21'0 0.0
2016-Apr-27 18:33N 51°17' E 004°21'0 0.0
2016-Apr-27 17:33N 51°17' E 004°21'0 0.0
2016-Apr-27 16:33N 51°17' E 004°21'0 0.0
2016-Apr-27 15:34N 51°17' E 004°21'0 0.0
2016-Apr-27 14:33N 51°17' E 004°21'0 0.0
2016-Apr-27 13:34N 51°17' E 004°21'0 0.0
2016-Apr-27 12:33N 51°17' E 004°21'0 0.0
2016-Apr-27 11:33N 51°17' E 004°21'0 0.0
2016-Apr-27 10:33N 51°17' E 004°21'0 0.0
2016-Apr-27 09:33N 51°17' E 004°21'0 0.0
2016-Apr-27 08:33N 51°17' E 004°21'0 0.0
2016-Apr-27 07:30N 51°17' E 004°21'0 0.0
2016-Apr-27 06:33N 51°17' E 004°21'0 0.0
2016-Apr-27 05:33N 51°17' E 004°21'0 0.0
2016-Apr-27 04:33N 51°17' E 004°21'0 0.0
2016-Apr-27 03:33N 51°17' E 004°21'0 0.0
2016-Apr-27 02:33N 51°17' E 004°21'0 0.0
2016-Apr-27 01:33N 51°17' E 004°21'0 0.0
2016-Apr-27 00:34N 51°17' E 004°21'0 0.0
2016-Apr-26 23:33N 51°17' E 004°21'0 0.0
2016-Apr-26 22:33N 51°17' E 004°21'0 0.0
2016-Apr-26 21:33N 51°17' E 004°21'0 0.0
2016-Apr-26 20:30N 51°17' E 004°21'0 0.0
2016-Apr-26 19:33N 51°17' E 004°21'3 3.2
2016-Apr-26 18:33N 51°20' E 004°18'1 1.4
2016-Apr-26 17:34N 51°21' E 004°17'2 2.5
2016-Apr-26 16:33N 51°22' E 004°14'9 8.6
2016-Apr-26 15:34N 51°26' E 004°01'10 9.5
2016-Apr-26 14:34N 51°21' E 003°48'9 8.7
2016-Apr-26 13:34N 51°25' E 003°36'1110.9
2016-Apr-26 12:33N 51°34' E 003°25'1211.9
2016-Apr-26 11:33N 51°43' E 003°13'1010.3
2016-Apr-26 10:33N 51°47' E 002°58'5310.4
2016-Apr-26 05:27N 52°31' E 003°45'1010.9
2016-Apr-26 04:33N 52°32' E 004°01'1010.2
2016-Apr-26 03:33N 52°30' E 004°17'7 7.2
2016-Apr-26 02:33N 52°29' E 004°29'5 4.6
2016-Apr-26 01:33N 52°28' E 004°36'0 0.0
2016-Apr-26 00:32N 52°28' E 004°36'0 0.0
2016-Apr-25 23:32N 52°28' E 004°36'0 0.0
2016-Apr-25 22:32N 52°28' E 004°36'0 0.0
2016-Apr-25 21:32N 52°28' E 004°36'0 0.0
2016-Apr-25 20:32N 52°28' E 004°36'0 0.0
2016-Apr-25 19:32N 52°28' E 004°36'0 0.0
2016-Apr-25 18:32N 52°28' E 004°36'0 0.0
2016-Apr-25 17:32N 52°28' E 004°36'0 0.0
2016-Apr-25 16:32N 52°28' E 004°36'0 0.0
2016-Apr-25 15:32N 52°28' E 004°36'0 0.0
2016-Apr-25 14:32N 52°28' E 004°36'0 0.0
2016-Apr-25 13:32N 52°28' E 004°36'0 0.0
2016-Apr-25 12:29N 52°28' E 004°36'0 0.0
2016-Apr-25 11:32N 52°28' E 004°36'0 0.0
2016-Apr-25 10:32N 52°28' E 004°36'0 0.0
2016-Apr-25 09:32N 52°28' E 004°36'0 0.0
2016-Apr-25 08:32N 52°28' E 004°36'0 0.0
2016-Apr-25 07:32N 52°28' E 004°36'0 0.0
2016-Apr-25 06:32N 52°28' E 004°36'0 0.0
2016-Apr-25 05:32N 52°28' E 004°36'0 0.0
2016-Apr-25 04:32N 52°28' E 004°36'0 0.0
2016-Apr-25 03:32N 52°28' E 004°36'0 0.0
2016-Apr-25 02:32N 52°28' E 004°36'0 0.0
2016-Apr-25 01:32N 52°28' E 004°36'0 0.0
2016-Apr-25 00:32N 52°28' E 004°36'0 0.0
2016-Apr-24 23:32N 52°28' E 004°36'0 0.0
2016-Apr-24 22:32N 52°28' E 004°36'0 0.0
2016-Apr-24 21:32N 52°28' E 004°36'0 0.0
2016-Apr-24 20:32N 52°28' E 004°36'0 0.0
2016-Apr-24 19:32N 52°28' E 004°36'0 0.0
2016-Apr-24 18:32N 52°28' E 004°36'0 0.0
2016-Apr-24 17:29N 52°28' E 004°36'0 0.0
2016-Apr-24 16:32N 52°28' E 004°36'0 0.0
2016-Apr-24 15:32N 52°28' E 004°36'0 0.0
2016-Apr-24 14:32N 52°28' E 004°36'0 0.0
2016-Apr-24 13:32N 52°28' E 004°36'0 0.0
2016-Apr-24 12:32N 52°28' E 004°36'0 0.0
2016-Apr-24 11:32N 52°28' E 004°36'0 0.0
2016-Apr-24 10:32N 52°28' E 004°36'0 0.0
2016-Apr-24 09:32N 52°28' E 004°36'0 0.0
2016-Apr-24 08:32N 52°28' E 004°36'0 0.0
2016-Apr-24 07:32N 52°28' E 004°36'0 0.0
2016-Apr-24 06:32N 52°28' E 004°36'0 0.0
2016-Apr-24 05:32N 52°28' E 004°36'0 0.0
2016-Apr-24 04:32N 52°28' E 004°36'0 0.0
2016-Apr-24 03:32N 52°28' E 004°36'0 0.0
2016-Apr-24 02:32N 52°28' E 004°36'0 0.0
2016-Apr-24 01:32N 52°28' E 004°36'0 0.0
2016-Apr-24 00:32N 52°28' E 004°36'0 0.0
2016-Apr-23 23:32N 52°28' E 004°36'0 0.0
2016-Apr-23 22:32N 52°28' E 004°36'0 0.0
2016-Apr-23 21:32N 52°28' E 004°36'0 0.0
2016-Apr-23 20:32N 52°28' E 004°36'0 0.0
2016-Apr-23 19:32N 52°28' E 004°36'0 0.0
2016-Apr-23 18:32N 52°28' E 004°36'0 0.0
2016-Apr-23 17:32N 52°28' E 004°36'0 0.0
2016-Apr-23 16:32N 52°28' E 004°36'0 0.0
2016-Apr-23 15:32N 52°28' E 004°36'0 0.0
2016-Apr-23 14:32N 52°28' E 004°36'0 0.0
2016-Apr-23 13:32N 52°28' E 004°36'0 0.0
2016-Apr-23 12:32N 52°28' E 004°36'0 0.0
2016-Apr-23 11:32N 52°28' E 004°36'0 0.0
2016-Apr-23 10:32N 52°28' E 004°36'0 0.0
2016-Apr-23 09:29N 52°28' E 004°36'0 0.2
2016-Apr-23 08:33N 52°28' E 004°36'5 5.1
2016-Apr-23 07:34N 52°28' E 004°28'6 6.1
2016-Apr-23 06:34N 52°28' E 004°18'6 5.6
2016-Apr-23 05:33N 52°29' E 004°09'1515.0
2016-Apr-23 04:33N 52°26' E 003°45'6615.1
2016-Apr-23 00:10N 51°40' E 002°27'914.7
2016-Apr-22 23:33N 51°33' E 002°17'1413.9
2016-Apr-22 22:33N 51°23' E 002°03'1312.8
2016-Apr-22 21:33N 51°13' E 001°49'1111.2
2016-Apr-22 20:33N 51°04' E 001°38'1110.7
2016-Apr-22 19:33N 50°56' E 001°27'1111.0
2016-Apr-22 18:32N 50°45' E 001°22'3811.7
2016-Apr-22 15:20N 50°25' E 000°32'912.2
2016-Apr-22 14:33N 50°24' E 000°17'1212.1
2016-Apr-22 13:33N 50°20' W 000°01'1212.2
2016-Apr-22 12:33N 50°17' W 000°20'1312.8
2016-Apr-22 11:33N 50°13' W 000°39'  
Track history (hours):
 
Tides and Currents Weather Stations Pressure Air Temp Water Temp Dewpoint Dewpoint Depression Visibility Wind Speed Wind Dir Waves Ship Positions

Ocean Tomo

Last reported at 2016-May-02 10:12 UTC. Time now 2016-May-03 12:31 UTC.
Position N 49°04' W 006°09'.

Length 190 m; draft 9.3 m.

Type: Ship. MMSI: 372951000.

Date/timePositionNaut miles runAvg speedWind from/ knotsBaromVisibWave heightAir tempDewpointWater temp
2016-May-02 10:12N 49°04' W 006°09'812.7
2016-May-02 09:33N 49°08' W 005°58'1413.0
2016-May-02 08:29N 49°13' W 005°38'1613.5
2016-May-02 07:16N 49°20' W 005°16'1013.9
2016-May-02 06:33N 49°24' W 005°02'1414.0
2016-May-02 05:33N 49°30' W 004°42'1413.7
2016-May-02 04:33N 49°36' W 004°23'1313.3
2016-May-02 03:33N 49°41' W 004°04'1313.0
2016-May-02 02:33N 49°47' W 003°46'1312.8
2016-May-02 01:33N 49°52' W 003°28'1312.8
2016-May-02 00:33N 49°57' W 003°10'1313.3
2016-May-01 23:33N 50°02' W 002°50'6514.9
2016-May-01 19:12N 50°19' W 001°12'914.8
2016-May-01 18:33N 50°21' W 000°58'1413.8
2016-May-01 17:33N 50°25' W 000°37'1313.1
2016-May-01 16:33N 50°28' W 000°17'1312.9
2016-May-01 15:33N 50°32' E 000°03'1312.9
2016-May-01 14:33N 50°35' E 000°22'2813.8
2016-May-01 12:33N 50°49' E 001°00'1515.5
2016-May-01 11:33N 50°60' E 001°18'1515.2
2016-May-01 10:34N 51°09' E 001°37'1414.1
2016-May-01 09:33N 51°19' E 001°52'1111.1
2016-May-01 08:34N 51°23' E 002°09'1312.7
2016-May-01 07:33N 51°23' E 002°30'1211.7
2016-May-01 06:33N 51°22' E 002°48'1212.3
2016-May-01 05:33N 51°24' E 003°08'1212.4
2016-May-01 04:33N 51°25' E 003°27'9 9.2
2016-May-01 03:33N 51°25' E 003°42'9 9.4
2016-May-01 02:33N 51°23' E 003°57'8 8.3
2016-May-01 01:33N 51°23' E 004°10'5 5.2
2016-May-01 00:33N 51°21' E 004°17'1 0.5
2016-Apr-30 23:33N 51°20' E 004°18'4 4.1
2016-Apr-30 22:33N 51°17' E 004°21'0 0.1
2016-Apr-30 21:31N 51°17' E 004°21'0 0.0
2016-Apr-30 20:31N 51°17' E 004°21'0 0.0
2016-Apr-30 19:31N 51°17' E 004°21'0 0.0
2016-Apr-30 18:28N 51°17' E 004°21'0 0.0
2016-Apr-30 17:31N 51°17' E 004°21'0 0.0
2016-Apr-30 16:31N 51°17' E 004°21'0 0.0
2016-Apr-30 15:31N 51°17' E 004°21'0 0.0
2016-Apr-30 14:31N 51°17' E 004°21'0 0.0
2016-Apr-30 13:31N 51°17' E 004°21'0 0.0
2016-Apr-30 12:25N 51°17' E 004°21'0 0.0
2016-Apr-30 11:31N 51°17' E 004°21'0 0.0
2016-Apr-30 10:31N 51°17' E 004°21'0 0.0
2016-Apr-30 09:25N 51°17' E 004°21'0 0.0
2016-Apr-30 08:31N 51°17' E 004°21'0 0.0
2016-Apr-30 07:31N 51°17' E 004°21'0 0.0
2016-Apr-30 06:28N 51°17' E 004°21'0 0.0
2016-Apr-30 05:31N 51°17' E 004°21'0 0.0
2016-Apr-30 04:31N 51°17' E 004°21'0 0.0
2016-Apr-30 03:31N 51°17' E 004°21'0 0.0
2016-Apr-30 02:31N 51°17' E 004°21'0 0.0
2016-Apr-30 01:28N 51°17' E 004°21'0 0.0
2016-Apr-30 00:31N 51°17' E 004°21'0 0.0
2016-Apr-29 23:31N 51°17' E 004°21'0 0.0
2016-Apr-29 22:31N 51°17' E 004°21'0 0.0
2016-Apr-29 21:31N 51°17' E 004°21'0 0.0
2016-Apr-29 20:31N 51°17' E 004°21'0 0.0
2016-Apr-29 19:31N 51°17' E 004°21'0 0.0
2016-Apr-29 18:28N 51°17' E 004°21'0 0.0
2016-Apr-29 17:31N 51°17' E 004°21'0 0.0
2016-Apr-29 16:31N 51°17' E 004°21'0 0.0
2016-Apr-29 15:31N 51°17' E 004°21'0 0.0
2016-Apr-29 14:28N 51°17' E 004°21'0 0.0
2016-Apr-29 13:31N 51°17' E 004°21'0 0.0
2016-Apr-29 12:31N 51°17' E 004°21'0 0.0
2016-Apr-29 11:31N 51°17' E 004°21'0 0.0
2016-Apr-29 10:31N 51°17' E 004°21'0 0.0
2016-Apr-29 09:31N 51°17' E 004°21'0 0.0
2016-Apr-29 08:31N 51°17' E 004°21'0 0.0
2016-Apr-29 07:31N 51°17' E 004°21'0 0.0
2016-Apr-29 06:31N 51°17' E 004°21'0 0.0
2016-Apr-29 05:28N 51°17' E 004°21'0 0.0
2016-Apr-29 04:28N 51°17' E 004°21'0 0.0
2016-Apr-29 03:31N 51°17' E 004°21'0 0.0
2016-Apr-29 02:31N 51°17' E 004°21'0 0.0
2016-Apr-29 01:31N 51°17' E 004°21'0 0.0
2016-Apr-29 00:31N 51°17' E 004°21'0 0.0
2016-Apr-28 23:28N 51°17' E 004°21'0 0.0
2016-Apr-28 22:31N 51°17' E 004°21'0 0.0
2016-Apr-28 21:28N 51°17' E 004°21'0 0.0
2016-Apr-28 20:31N 51°17' E 004°21'0 0.0
2016-Apr-28 19:31N 51°17' E 004°21'0 0.0
2016-Apr-28 18:31N 51°17' E 004°21'0 0.0
2016-Apr-28 17:31N 51°17' E 004°21'0 0.0
2016-Apr-28 16:31N 51°17' E 004°21'0 0.0
2016-Apr-28 15:31N 51°17' E 004°21'0 0.0
2016-Apr-28 14:31N 51°17' E 004°21'0 0.0
2016-Apr-28 13:28N 51°17' E 004°21'0 0.0
2016-Apr-28 12:31N 51°17' E 004°21'0 0.0
2016-Apr-28 11:31N 51°17' E 004°21'0 0.0
2016-Apr-28 10:31N 51°17' E 004°21'0 0.0
2016-Apr-28 09:31N 51°17' E 004°21'0 0.0
2016-Apr-28 08:31N 51°17' E 004°21'0 0.0
2016-Apr-28 07:31N 51°17' E 004°21'0 0.0
2016-Apr-28 06:31N 51°17' E 004°21'0 0.0
2016-Apr-28 05:34N 51°17' E 004°21'0 0.0
2016-Apr-28 04:28N 51°17' E 004°21'0 0.0
2016-Apr-28 03:34N 51°17' E 004°21'0 0.0
2016-Apr-28 02:31N 51°17' E 004°21'0 0.0
2016-Apr-28 01:30N 51°17' E 004°21'0 0.0
2016-Apr-28 00:33N 51°17' E 004°21'0 0.0
2016-Apr-27 23:33N 51°17' E 004°21'0 0.0
2016-Apr-27 22:33N 51°17' E 004°21'0 0.0
2016-Apr-27 21:33N 51°17' E 004°21'0 0.0
2016-Apr-27 20:33N 51°17' E 004°21'0 0.0
2016-Apr-27 19:33N 51°17' E 004°21'0 0.0
2016-Apr-27 18:33N 51°17' E 004°21'0 0.0
2016-Apr-27 17:33N 51°17' E 004°21'0 0.0
2016-Apr-27 16:33N 51°17' E 004°21'0 0.0
2016-Apr-27 15:34N 51°17' E 004°21'0 0.0
2016-Apr-27 14:33N 51°17' E 004°21'0 0.0
2016-Apr-27 13:34N 51°17' E 004°21'0 0.0
2016-Apr-27 12:33N 51°17' E 004°21'0 0.0
2016-Apr-27 11:33N 51°17' E 004°21'0 0.0
2016-Apr-27 10:33N 51°17' E 004°21'0 0.0
2016-Apr-27 09:33N 51°17' E 004°21'0 0.0
2016-Apr-27 08:33N 51°17' E 004°21'0 0.0
2016-Apr-27 07:30N 51°17' E 004°21'0 0.0
2016-Apr-27 06:33N 51°17' E 004°21'0 0.0
2016-Apr-27 05:33N 51°17' E 004°21'0 0.0
2016-Apr-27 04:33N 51°17' E 004°21'0 0.0
2016-Apr-27 03:33N 51°17' E 004°21'0 0.0
2016-Apr-27 02:33N 51°17' E 004°21'0 0.0
2016-Apr-27 01:33N 51°17' E 004°21'0 0.0
2016-Apr-27 00:34N 51°17' E 004°21'0 0.0
2016-Apr-26 23:33N 51°17' E 004°21'0 0.0
2016-Apr-26 22:33N 51°17' E 004°21'0 0.0
2016-Apr-26 21:33N 51°17' E 004°21'0 0.0
2016-Apr-26 20:30N 51°17' E 004°21'0 0.0
2016-Apr-26 19:33N 51°17' E 004°21'3 3.2
2016-Apr-26 18:33N 51°20' E 004°18'1 1.4
2016-Apr-26 17:34N 51°21' E 004°17'2 2.5
2016-Apr-26 16:33N 51°22' E 004°14'9 8.6
2016-Apr-26 15:34N 51°26' E 004°01'10 9.5
2016-Apr-26 14:34N 51°21' E 003°48'9 8.7
2016-Apr-26 13:34N 51°25' E 003°36'1110.9
2016-Apr-26 12:33N 51°34' E 003°25'1211.9
2016-Apr-26 11:33N 51°43' E 003°13'1010.3
2016-Apr-26 10:33N 51°47' E 002°58'5310.4
2016-Apr-26 05:27N 52°31' E 003°45'1010.9
2016-Apr-26 04:33N 52°32' E 004°01'1010.2
2016-Apr-26 03:33N 52°30' E 004°17'7 7.2
2016-Apr-26 02:33N 52°29' E 004°29'5 4.6
2016-Apr-26 01:33N 52°28' E 004°36'0 0.0
2016-Apr-26 00:32N 52°28' E 004°36'0 0.0
2016-Apr-25 23:32N 52°28' E 004°36'0 0.0
2016-Apr-25 22:32N 52°28' E 004°36'0 0.0
2016-Apr-25 21:32N 52°28' E 004°36'0 0.0
2016-Apr-25 20:32N 52°28' E 004°36'0 0.0
2016-Apr-25 19:32N 52°28' E 004°36'0 0.0
2016-Apr-25 18:32N 52°28' E 004°36'0 0.0
2016-Apr-25 17:32N 52°28' E 004°36'0 0.0
2016-Apr-25 16:32N 52°28' E 004°36'0 0.0
2016-Apr-25 15:32N 52°28' E 004°36'0 0.0
2016-Apr-25 14:32N 52°28' E 004°36'0 0.0
2016-Apr-25 13:32N 52°28' E 004°36'0 0.0
2016-Apr-25 12:29N 52°28' E 004°36'0 0.0
2016-Apr-25 11:32N 52°28' E 004°36'0 0.0
2016-Apr-25 10:32N 52°28' E 004°36'0 0.0
2016-Apr-25 09:32N 52°28' E 004°36'0 0.0
2016-Apr-25 08:32N 52°28' E 004°36'0 0.0
2016-Apr-25 07:32N 52°28' E 004°36'0 0.0
2016-Apr-25 06:32N 52°28' E 004°36'0 0.0
2016-Apr-25 05:32N 52°28' E 004°36'0 0.0
2016-Apr-25 04:32N 52°28' E 004°36'0 0.0
2016-Apr-25 03:32N 52°28' E 004°36'0 0.0
2016-Apr-25 02:32N 52°28' E 004°36'0 0.0
2016-Apr-25 01:32N 52°28' E 004°36'0 0.0
2016-Apr-25 00:32N 52°28' E 004°36'0 0.0
2016-Apr-24 23:32N 52°28' E 004°36'0 0.0
2016-Apr-24 22:32N 52°28' E 004°36'0 0.0
2016-Apr-24 21:32N 52°28' E 004°36'0 0.0
2016-Apr-24 20:32N 52°28' E 004°36'0 0.0
2016-Apr-24 19:32N 52°28' E 004°36'0 0.0
2016-Apr-24 18:32N 52°28' E 004°36'0 0.0
2016-Apr-24 17:29N 52°28' E 004°36'0 0.0
2016-Apr-24 16:32N 52°28' E 004°36'0 0.0
2016-Apr-24 15:32N 52°28' E 004°36'0 0.0
2016-Apr-24 14:32N 52°28' E 004°36'0 0.0
2016-Apr-24 13:32N 52°28' E 004°36'0 0.0
2016-Apr-24 12:32N 52°28' E 004°36'0 0.0
2016-Apr-24 11:32N 52°28' E 004°36'0 0.0
2016-Apr-24 10:32N 52°28' E 004°36'0 0.0
2016-Apr-24 09:32N 52°28' E 004°36'0 0.0
2016-Apr-24 08:32N 52°28' E 004°36'0 0.0
2016-Apr-24 07:32N 52°28' E 004°36'0 0.0
2016-Apr-24 06:32N 52°28' E 004°36'0 0.0
2016-Apr-24 05:32N 52°28' E 004°36'0 0.0
2016-Apr-24 04:32N 52°28' E 004°36'0 0.0
2016-Apr-24 03:32N 52°28' E 004°36'0 0.0
2016-Apr-24 02:32N 52°28' E 004°36'0 0.0
2016-Apr-24 01:32N 52°28' E 004°36'0 0.0
2016-Apr-24 00:32N 52°28' E 004°36'0 0.0
2016-Apr-23 23:32N 52°28' E 004°36'0 0.0
2016-Apr-23 22:32N 52°28' E 004°36'0 0.0
2016-Apr-23 21:32N 52°28' E 004°36'0 0.0
2016-Apr-23 20:32N 52°28' E 004°36'0 0.0
2016-Apr-23 19:32N 52°28' E 004°36'0 0.0
2016-Apr-23 18:32N 52°28' E 004°36'0 0.0
2016-Apr-23 17:32N 52°28' E 004°36'0 0.0
2016-Apr-23 16:32N 52°28' E 004°36'0 0.0
2016-Apr-23 15:32N 52°28' E 004°36'0 0.0
2016-Apr-23 14:32N 52°28' E 004°36'0 0.0
2016-Apr-23 13:32N 52°28' E 004°36'0 0.0
2016-Apr-23 12:32N 52°28' E 004°36'0 0.0
2016-Apr-23 11:32N 52°28' E 004°36'0 0.0
2016-Apr-23 10:32N 52°28' E 004°36'0 0.0
2016-Apr-23 09:29N 52°28' E 004°36'0 0.2
2016-Apr-23 08:33N 52°28' E 004°36'5 5.1
2016-Apr-23 07:34N 52°28' E 004°28'6 6.1
2016-Apr-23 06:34N 52°28' E 004°18'6 5.6
2016-Apr-23 05:33N 52°29' E 004°09'1515.0
2016-Apr-23 04:33N 52°26' E 003°45'6615.1
2016-Apr-23 00:10N 51°40' E 002°27'914.7
2016-Apr-22 23:33N 51°33' E 002°17'1413.9
2016-Apr-22 22:33N 51°23' E 002°03'1312.8
2016-Apr-22 21:33N 51°13' E 001°49'1111.2
2016-Apr-22 20:33N 51°04' E 001°38'1110.7
2016-Apr-22 19:33N 50°56' E 001°27'1111.0
2016-Apr-22 18:32N 50°45' E 001°22'3811.7
2016-Apr-22 15:20N 50°25' E 000°32'912.2
2016-Apr-22 14:33N 50°24' E 000°17'1212.1
2016-Apr-22 13:33N 50°20' W 000°01'1212.2
2016-Apr-22 12:33N 50°17' W 000°20'1312.8
2016-Apr-22 11:33N 50°13' W 000°39'  

Dump ship's entire track history